createdAt,value
2023-10-29T00:00:44.607Z,96999.31
2023-10-29T00:02:49.705Z,96997.31
2023-10-29T00:04:54.797Z,96998.16
2023-10-29T00:07:00.600Z,97005.06
2023-10-29T00:09:05.267Z,97003.16
2023-10-29T00:11:10.063Z,97002.00
2023-10-29T00:13:14.970Z,97007.75
2023-10-29T00:15:22.711Z,97007.44
2023-10-29T00:17:24.814Z,97003.59
2023-10-29T00:19:29.746Z,97016.72
2023-10-29T00:21:35.989Z,97017.47
2023-10-29T00:23:40.944Z,97010.25
2023-10-29T00:25:45.733Z,97008.25
2023-10-29T00:27:50.467Z,97005.84
2023-10-29T00:29:55.735Z,97025.59
2023-10-29T00:32:03.209Z,97025.69
2023-10-29T00:34:08.651Z,97026.31
2023-10-29T00:36:13.737Z,97028.69
2023-10-29T00:38:18.379Z,97020.03
2023-10-29T00:40:23.365Z,97012.00
2023-10-29T00:42:28.203Z,97019.59
2023-10-29T00:44:32.976Z,97024.81
2023-10-29T00:46:40.814Z,97025.66
2023-10-29T00:48:45.810Z,97023.78
2023-10-29T00:50:50.610Z,97012.59
2023-10-29T00:52:55.548Z,97007.28
2023-10-29T00:55:00.331Z,97007.50
2023-10-29T00:57:05.190Z,97005.41
2023-10-29T00:59:13.162Z,97005.41
2023-10-29T01:01:18.363Z,96987.28
2023-10-29T01:03:20.569Z,96985.59
2023-10-29T01:05:27.994Z,96978.91
2023-10-29T01:07:34.235Z,96986.22
2023-10-29T01:09:41.476Z,96983.09
2023-10-29T01:11:47.198Z,96993.88
2023-10-29T01:13:49.436Z,97000.66
2023-10-29T01:15:54.346Z,96990.31
2023-10-29T01:18:00.411Z,96987.84
2023-10-29T01:20:05.458Z,96976.75
2023-10-29T01:22:12.904Z,96970.59
2023-10-29T01:24:17.534Z,96969.13
2023-10-29T01:26:22.699Z,96973.66
2023-10-29T01:28:27.508Z,96979.56
2023-10-29T01:30:32.366Z,96977.91
2023-10-29T01:32:37.489Z,96976.97
2023-10-29T01:34:42.282Z,96974.13
2023-10-29T01:36:46.959Z,96967.25
2023-10-29T01:38:54.515Z,96960.03
2023-10-29T01:40:59.223Z,96967.78
2023-10-29T01:43:01.278Z,96977.19
2023-10-29T01:45:06.868Z,96969.66
2023-10-29T01:47:11.579Z,96967.06
2023-10-29T01:49:13.740Z,96961.81
2023-10-29T01:51:19.452Z,96962.78
2023-10-29T01:53:24.172Z,96965.06
2023-10-29T01:55:32.667Z,96955.56
2023-10-29T01:57:37.670Z,96950.44
2023-10-29T01:59:43.153Z,96948.78
2023-10-29T02:01:48.051Z,96947.00
2023-10-29T02:03:52.820Z,96953.47
2023-10-29T02:05:57.640Z,96949.13
2023-10-29T02:08:02.348Z,96946.28
2023-10-29T02:10:04.895Z,96947.13
2023-10-29T02:12:13.154Z,96948.91
2023-10-29T02:14:17.862Z,96939.59
2023-10-29T02:16:20.090Z,96934.28
2023-10-29T02:18:24.889Z,96937.34
2023-10-29T02:20:29.691Z,96935.44
2023-10-29T02:22:37.354Z,96938.88
2023-10-29T02:24:42.026Z,96941.28
2023-10-29T02:26:46.672Z,96939.59
2023-10-29T02:28:51.385Z,96942.34
2023-10-29T02:30:56.021Z,96937.22
2023-10-29T02:33:00.793Z,96936.38
2023-10-29T02:35:06.302Z,96939.00
2023-10-29T02:37:10.964Z,96934.59
2023-10-29T02:39:18.353Z,96935.44
2023-10-29T02:41:23.455Z,96944.00
2023-10-29T02:43:28.348Z,96946.28
2023-10-29T02:45:33.326Z,96947.13
2023-10-29T02:47:38.340Z,96949.53
2023-10-29T02:49:41.188Z,96957.88
2023-10-29T02:51:45.898Z,96959.53
2023-10-29T02:53:48.404Z,96956.91
2023-10-29T02:55:55.777Z,96961.09
2023-10-29T02:58:00.406Z,96962.53
2023-10-29T03:00:05.624Z,96952.81
2023-10-29T03:02:10.519Z,96967.75
2023-10-29T03:04:12.837Z,96955.75
2023-10-29T03:06:17.826Z,96962.88
2023-10-29T03:08:22.759Z,96957.75
2023-10-29T03:10:27.623Z,96949.09
2023-10-29T03:12:35.404Z,96951.09
2023-10-29T03:14:40.339Z,96939.16
2023-10-29T03:16:45.342Z,96937.34
2023-10-29T03:18:51.488Z,96942.84
2023-10-29T03:20:56.760Z,96933.38
2023-10-29T03:22:58.807Z,96919.69
2023-10-29T03:25:03.940Z,96916.59
2023-10-29T03:27:10.106Z,96912.50
2023-10-29T03:29:14.736Z,96907.94
2023-10-29T03:31:20.344Z,96910.03
2023-10-29T03:33:25.142Z,96907.72
2023-10-29T03:35:30.339Z,96901.59
2023-10-29T03:37:35.596Z,96906.16
2023-10-29T03:39:40.322Z,96908.84
2023-10-29T03:41:43.361Z,96917.63
2023-10-29T03:43:48.825Z,96925.56
2023-10-29T03:45:56.533Z,96924.91
2023-10-29T03:48:01.473Z,96919.09
2023-10-29T03:50:06.518Z,96917.22
2023-10-29T03:52:08.594Z,96899.06
2023-10-29T03:54:13.314Z,96893.13
2023-10-29T03:56:18.125Z,96891.56
2023-10-29T03:58:20.175Z,96897.69
2023-10-29T04:00:25.855Z,96894.25
2023-10-29T04:02:33.170Z,96890.31
2023-10-29T04:04:42.318Z,96885.00
2023-10-29T04:06:47.287Z,96887.69
2023-10-29T04:08:51.994Z,96885.28
2023-10-29T04:10:54.069Z,96876.03
2023-10-29T04:12:58.749Z,96873.63
2023-10-29T04:15:06.345Z,96866.84
2023-10-29T04:17:12.954Z,96858.41
2023-10-29T04:19:21.834Z,96874.75
2023-10-29T04:21:26.507Z,96873.00
2023-10-29T04:23:31.496Z,96873.19
2023-10-29T04:25:36.332Z,96877.50
2023-10-29T04:27:41.230Z,96879.97
2023-10-29T04:29:43.497Z,96872.91
2023-10-29T04:31:49.122Z,96867.16
2023-10-29T04:33:53.803Z,96861.94
2023-10-29T04:36:01.492Z,96856.84
2023-10-29T04:38:06.190Z,96857.97
2023-10-29T04:40:16.555Z,96841.00
2023-10-29T04:42:21.629Z,96840.38
2023-10-29T04:44:27.748Z,96837.88
2023-10-29T04:46:32.453Z,96836.81
2023-10-29T04:48:37.415Z,96847.34
2023-10-29T04:50:42.324Z,96849.84
2023-10-29T04:52:49.641Z,96853.31
2023-10-29T04:54:54.718Z,96865.69
2023-10-29T04:56:59.611Z,96865.69
2023-10-29T04:59:04.527Z,96860.69
2023-10-29T05:01:09.212Z,96867.66
2023-10-29T05:03:14.029Z,96870.28
2023-10-29T05:05:18.970Z,96871.22
2023-10-29T05:07:24.231Z,96865.06
2023-10-29T05:09:31.728Z,96869.34
2023-10-29T05:11:37.180Z,96861.41
2023-10-29T05:13:42.332Z,96859.84
2023-10-29T05:15:47.142Z,96852.16
2023-10-29T05:17:51.871Z,96851.28
2023-10-29T05:19:57.063Z,96853.19
2023-10-29T05:22:02.181Z,96851.50
2023-10-29T05:24:07.437Z,96839.63
2023-10-29T05:26:15.072Z,96844.09
2023-10-29T05:28:19.928Z,96836.63
2023-10-29T05:30:25.284Z,96838.47
2023-10-29T05:32:27.618Z,96841.28
2023-10-29T05:34:32.371Z,96842.13
2023-10-29T05:36:37.044Z,96845.34
2023-10-29T05:38:41.748Z,96836.50
2023-10-29T05:40:43.907Z,96845.13
2023-10-29T05:42:51.210Z,96844.00
2023-10-29T05:44:55.850Z,96841.28
2023-10-29T05:47:00.641Z,96837.78
2023-10-29T05:49:05.425Z,96847.25
2023-10-29T05:51:13.932Z,96845.47
2023-10-29T05:53:18.664Z,96841.09
2023-10-29T05:55:23.950Z,96842.84
2023-10-29T05:57:28.637Z,96838.28
2023-10-29T05:59:36.018Z,96832.16
2023-10-29T06:01:40.804Z,96846.00
2023-10-29T06:03:45.784Z,96844.84
2023-10-29T06:05:50.866Z,96846.00
2023-10-29T06:07:53.097Z,96854.44
2023-10-29T06:09:57.834Z,96858.72
2023-10-29T06:12:02.595Z,96865.38
2023-10-29T06:14:07.598Z,96874.66
2023-10-29T06:16:15.725Z,96874.34
2023-10-29T06:18:20.520Z,96879.44
2023-10-29T06:20:27.803Z,96870.09
2023-10-29T06:22:32.545Z,96854.13
2023-10-29T06:24:37.322Z,96861.03
2023-10-29T06:26:42.164Z,96867.16
2023-10-29T06:28:44.563Z,96864.75
2023-10-29T06:30:49.522Z,96885.41
2023-10-29T06:32:57.194Z,96885.09
2023-10-29T06:35:01.833Z,96890.72
2023-10-29T06:37:06.523Z,96895.72
2023-10-29T06:39:11.352Z,96889.38
2023-10-29T06:41:16.186Z,96895.09
2023-10-29T06:43:21.241Z,96888.00
2023-10-29T06:45:26.089Z,96879.25
2023-10-29T06:47:31.103Z,96867.59
2023-10-29T06:49:39.098Z,96893.66
2023-10-29T06:51:43.731Z,96885.00
2023-10-29T06:53:49.076Z,96883.63
2023-10-29T06:55:53.747Z,96885.91
2023-10-29T06:57:58.720Z,96896.13
2023-10-29T07:00:03.514Z,96907.00
2023-10-29T07:02:05.708Z,96903.44
2023-10-29T07:04:11.003Z,96910.97
2023-10-29T07:06:17.537Z,96926.19
2023-10-29T07:08:22.541Z,96921.66
2023-10-29T07:10:27.356Z,96915.63
2023-10-29T07:12:32.567Z,96917.13
2023-10-29T07:14:38.167Z,96914.53
2023-10-29T07:16:45.470Z,96934.97
2023-10-29T07:18:50.698Z,96918.88
2023-10-29T07:20:57.056Z,96927.72
2023-10-29T07:23:04.648Z,96913.84
2023-10-29T07:25:07.410Z,96906.88
2023-10-29T07:27:12.189Z,96894.25
2023-10-29T07:29:17.109Z,96912.41
2023-10-29T07:31:22.117Z,96915.44
2023-10-29T07:33:27.047Z,96902.28
2023-10-29T07:35:31.794Z,96903.00
2023-10-29T07:37:33.908Z,96884.03
2023-10-29T07:39:41.402Z,96885.38
2023-10-29T07:41:46.162Z,96906.03
2023-10-29T07:43:52.715Z,96933.34
2023-10-29T07:45:58.056Z,96966.84
2023-10-29T07:48:03.064Z,96962.97
2023-10-29T07:50:08.382Z,96976.75
2023-10-29T07:52:13.196Z,96971.81
2023-10-29T07:54:17.901Z,96948.44
2023-10-29T07:56:25.334Z,96953.88
2023-10-29T07:58:30.002Z,96956.47
2023-10-29T08:00:34.733Z,96955.31
2023-10-29T08:02:36.924Z,96959.25
2023-10-29T08:04:41.674Z,96965.72
2023-10-29T08:06:44.735Z,96960.91
2023-10-29T08:08:49.495Z,96957.03
2023-10-29T08:10:54.284Z,96964.97
2023-10-29T08:13:04.033Z,96968.72
2023-10-29T08:15:09.511Z,96965.50
2023-10-29T08:17:18.655Z,96968.56
2023-10-29T08:19:25.250Z,96967.59
2023-10-29T08:21:30.067Z,96963.44
2023-10-29T08:23:34.732Z,96977.22
2023-10-29T08:25:39.583Z,96998.31
2023-10-29T08:27:44.449Z,96990.50
2023-10-29T08:29:52.372Z,96981.63
2023-10-29T08:31:57.200Z,96975.34
2023-10-29T08:34:02.281Z,96972.75
2023-10-29T08:36:07.597Z,96952.34
2023-10-29T08:38:12.569Z,96947.00
2023-10-29T08:40:17.954Z,96942.75
2023-10-29T08:42:22.967Z,96938.75
2023-10-29T08:44:28.991Z,96926.28
2023-10-29T08:46:36.867Z,96922.41
2023-10-29T08:48:42.283Z,96912.38
2023-10-29T08:50:47.285Z,96908.25
2023-10-29T08:52:52.066Z,96915.41
2023-10-29T08:54:54.490Z,96922.06
2023-10-29T08:56:59.187Z,96929.09
2023-10-29T08:59:04.054Z,96942.13
2023-10-29T09:01:12.832Z,96958.34
2023-10-29T09:03:20.750Z,96970.81
2023-10-29T09:05:25.642Z,96984.53
2023-10-29T09:07:30.523Z,96975.97
2023-10-29T09:09:36.940Z,96972.06
2023-10-29T09:11:44.722Z,96977.19
2023-10-29T09:13:46.875Z,96964.47
2023-10-29T09:15:51.783Z,96966.50
2023-10-29T09:17:56.729Z,96974.97
2023-10-29T09:20:05.378Z,96975.31
2023-10-29T09:22:10.777Z,96971.03
2023-10-29T09:24:16.592Z,96975.34
2023-10-29T09:26:21.365Z,96967.47
2023-10-29T09:28:26.274Z,96974.59
2023-10-29T09:30:31.061Z,96971.22
2023-10-29T09:32:36.896Z,96969.06
2023-10-29T09:34:43.415Z,96976.31
2023-10-29T09:36:50.784Z,96978.19
2023-10-29T09:38:55.857Z,96969.00
2023-10-29T09:41:01.015Z,96972.19
2023-10-29T09:43:10.005Z,96975.41
2023-10-29T09:45:18.478Z,96986.03
2023-10-29T09:47:24.593Z,96980.97
2023-10-29T09:49:30.443Z,96992.31
2023-10-29T09:51:35.286Z,97002.97
2023-10-29T09:53:43.208Z,97018.09
2023-10-29T09:55:48.076Z,97012.66
2023-10-29T09:57:53.135Z,97011.72
2023-10-29T09:59:55.382Z,97001.66
2023-10-29T10:02:00.152Z,96986.13
2023-10-29T10:04:05.264Z,96999.94
2023-10-29T10:06:08.002Z,97017.09
2023-10-29T10:08:13.319Z,97016.59
2023-10-29T10:10:20.796Z,97008.25
2023-10-29T10:12:27.127Z,97005.25
2023-10-29T10:14:31.965Z,97012.47
2023-10-29T10:16:36.661Z,97002.28
2023-10-29T10:18:51.916Z,97008.81
2023-10-29T10:21:01.543Z,97003.75
2023-10-29T10:23:06.982Z,97001.34
2023-10-29T10:25:19.407Z,96994.66
2023-10-29T10:27:26.738Z,96992.69
2023-10-29T10:29:34.924Z,96992.25
2023-10-29T10:31:40.279Z,96999.47
2023-10-29T10:33:45.157Z,96994.91
2023-10-29T10:35:52.224Z,96992.75
2023-10-29T10:37:55.341Z,96996.34
2023-10-29T10:40:00.404Z,96995.38
2023-10-29T10:42:05.282Z,96993.19
2023-10-29T10:44:14.044Z,96992.94
2023-10-29T10:46:21.618Z,96994.84
2023-10-29T10:48:26.751Z,96996.38
2023-10-29T10:50:31.970Z,96995.81
2023-10-29T10:52:36.758Z,96995.75
2023-10-29T10:54:44.067Z,96997.53
2023-10-29T10:56:47.028Z,96994.53
2023-10-29T10:58:52.429Z,96990.38
2023-10-29T11:01:00.689Z,96993.84
2023-10-29T11:03:17.091Z,96997.44
2023-10-29T11:05:32.008Z,97005.31
2023-10-29T11:07:37.101Z,96995.63
2023-10-29T11:09:41.837Z,96993.31
2023-10-29T11:11:46.184Z,96998.44
2023-10-29T11:13:51.826Z,96999.38
2023-10-29T11:15:59.249Z,97002.00
2023-10-29T11:18:04.848Z,97015.28
2023-10-29T11:20:10.527Z,97012.09
2023-10-29T11:22:16.262Z,97012.91
2023-10-29T11:24:22.459Z,97014.13
2023-10-29T11:26:28.716Z,97008.19
2023-10-29T11:28:46.730Z,97000.63
2023-10-29T11:31:06.674Z,96991.41
2023-10-29T11:33:24.118Z,96996.50
2023-10-29T11:35:29.446Z,96984.31
2023-10-29T11:37:37.850Z,96964.66
2023-10-29T11:39:44.107Z,96959.78
2023-10-29T11:41:46.859Z,96958.84
2023-10-29T11:44:14.487Z,96965.44
2023-10-29T11:46:19.223Z,96948.97
2023-10-29T11:48:24.148Z,96939.84
2023-10-29T11:50:29.203Z,96946.72
2023-10-29T11:52:43.834Z,96926.41
2023-10-29T11:54:49.328Z,96942.41
2023-10-29T11:56:55.090Z,96959.34
2023-10-29T11:59:06.953Z,96948.50
2023-10-29T12:01:09.923Z,96968.78
2023-10-29T12:03:15.021Z,96965.03
2023-10-29T12:05:22.494Z,96954.53
2023-10-29T12:07:25.642Z,96945.84
2023-10-29T12:09:33.372Z,96944.72
2023-10-29T12:11:35.505Z,96944.56
2023-10-29T12:13:43.288Z,96933.22
2023-10-29T12:15:49.672Z,96937.94
2023-10-29T12:17:54.853Z,96930.94
2023-10-29T12:19:59.841Z,96923.63
2023-10-29T12:22:15.778Z,96906.22
2023-10-29T12:24:20.495Z,96906.97
2023-10-29T12:26:27.157Z,96914.22
2023-10-29T12:28:31.941Z,96922.81
2023-10-29T12:30:37.106Z,96913.41
2023-10-29T12:32:42.216Z,96906.47
2023-10-29T12:34:48.311Z,96889.41
2023-10-29T12:36:54.817Z,96884.97
2023-10-29T12:39:02.776Z,96877.81
2023-10-29T12:41:09.695Z,96870.94
2023-10-29T12:43:14.481Z,96867.59
2023-10-29T12:45:26.227Z,96859.47
2023-10-29T12:47:31.256Z,96866.41
2023-10-29T12:49:37.554Z,96858.38
2023-10-29T12:51:43.230Z,96841.00
2023-10-29T12:53:46.276Z,96847.78
2023-10-29T12:55:53.921Z,96842.69
2023-10-29T12:57:59.199Z,96843.97
2023-10-29T13:00:05.472Z,96843.84
2023-10-29T13:02:11.186Z,96838.81
2023-10-29T13:04:13.393Z,96842.00
2023-10-29T13:06:18.237Z,96838.00
2023-10-29T13:08:23.152Z,96832.09
2023-10-29T13:10:27.844Z,96827.28
2023-10-29T13:12:38.360Z,96822.19
2023-10-29T13:14:43.249Z,96809.38
2023-10-29T13:16:48.054Z,96807.44
2023-10-29T13:18:52.926Z,96806.91
2023-10-29T13:21:03.997Z,96810.22
2023-10-29T13:23:06.328Z,96794.31
2023-10-29T13:25:12.403Z,96785.78
2023-10-29T13:27:17.151Z,96783.16
2023-10-29T13:29:26.135Z,96787.31
2023-10-29T13:31:31.103Z,96788.81
2023-10-29T13:33:35.877Z,96796.16
2023-10-29T13:35:41.798Z,96792.56
2023-10-29T13:37:46.699Z,96781.91
2023-10-29T13:39:53.175Z,96796.84
2023-10-29T13:41:58.294Z,96795.19
2023-10-29T13:44:03.114Z,96787.47
2023-10-29T13:46:10.461Z,96782.34
2023-10-29T13:48:15.415Z,96779.03
2023-10-29T13:50:20.451Z,96782.34
2023-10-29T13:52:22.655Z,96785.25
2023-10-29T13:54:27.765Z,96785.56
2023-10-29T13:56:32.413Z,96783.19
2023-10-29T13:58:34.495Z,96777.81
2023-10-29T14:00:39.623Z,96767.97
2023-10-29T14:02:47.045Z,96774.78
2023-10-29T14:04:51.813Z,96802.44
2023-10-29T14:06:56.601Z,96816.38
2023-10-29T14:09:01.398Z,96793.44
2023-10-29T14:11:06.459Z,96769.25
2023-10-29T14:13:11.232Z,96756.09
2023-10-29T14:15:16.740Z,96757.47
2023-10-29T14:17:21.565Z,96815.97
2023-10-29T14:19:28.985Z,96820.78
2023-10-29T14:21:34.057Z,96806.56
2023-10-29T14:23:36.512Z,96787.19
2023-10-29T14:25:41.207Z,96789.81
2023-10-29T14:27:46.021Z,96797.28
2023-10-29T14:29:50.840Z,96786.63
2023-10-29T14:31:57.013Z,96804.88
2023-10-29T14:34:01.649Z,96804.47
2023-10-29T14:36:09.367Z,96802.69
2023-10-29T14:38:14.224Z,96804.75
2023-10-29T14:40:19.064Z,96781.81
2023-10-29T14:42:23.791Z,96770.19
2023-10-29T14:44:28.794Z,96770.19
2023-10-29T14:46:34.983Z,96763.97
2023-10-29T14:48:41.374Z,96771.00
2023-10-29T14:50:46.185Z,96780.97
2023-10-29T14:52:53.594Z,96772.81
2023-10-29T14:54:58.352Z,96769.06
2023-10-29T14:57:13.805Z,96765.91
2023-10-29T14:59:27.096Z,96759.13
2023-10-29T15:01:29.300Z,96762.28
2023-10-29T15:03:34.250Z,96757.31
2023-10-29T15:05:39.165Z,96753.16
2023-10-29T15:07:43.911Z,96746.00
2023-10-29T15:09:51.223Z,96735.50
2023-10-29T15:11:59.514Z,96727.72
2023-10-29T15:14:07.083Z,96721.81
2023-10-29T15:16:12.167Z,96719.84
2023-10-29T15:18:14.441Z,96711.84
2023-10-29T15:20:19.396Z,96723.72
2023-10-29T15:22:24.153Z,96721.38
2023-10-29T15:24:28.874Z,96722.34
2023-10-29T15:26:36.697Z,96728.69
2023-10-29T15:28:38.767Z,96738.22
2023-10-29T15:30:43.771Z,96737.13
2023-10-29T15:32:48.897Z,96740.72
2023-10-29T15:34:54.143Z,96744.44
2023-10-29T15:36:59.637Z,96740.28
2023-10-29T15:39:06.167Z,96741.38
2023-10-29T15:41:11.265Z,96736.28
2023-10-29T15:43:18.542Z,96743.47
2023-10-29T15:45:20.940Z,96736.13
2023-10-29T15:47:27.778Z,96736.84
2023-10-29T15:49:30.172Z,96722.03
2023-10-29T15:51:35.048Z,96734.47
2023-10-29T15:53:39.942Z,96734.34
2023-10-29T15:55:42.012Z,96737.22
2023-10-29T15:57:47.646Z,96733.06
2023-10-29T15:59:55.785Z,96737.63
2023-10-29T16:02:00.545Z,96735.84
2023-10-29T16:04:06.485Z,96745.66
2023-10-29T16:06:11.336Z,96740.66
2023-10-29T16:08:16.335Z,96752.97
2023-10-29T16:10:20.984Z,96745.91
2023-10-29T16:12:25.978Z,96746.88
2023-10-29T16:14:30.753Z,96743.41
2023-10-29T16:16:38.147Z,96749.91
2023-10-29T16:18:42.910Z,96757.78
2023-10-29T16:20:48.918Z,96766.03
2023-10-29T16:22:53.678Z,96772.25
2023-10-29T16:24:58.581Z,96776.94
2023-10-29T16:27:03.292Z,96780.38
2023-10-29T16:29:08.238Z,96774.81
2023-10-29T16:31:13.087Z,96780.06
2023-10-29T16:33:20.451Z,96781.72
2023-10-29T16:35:26.151Z,96768.03
2023-10-29T16:37:30.926Z,96767.47
2023-10-29T16:39:36.489Z,96783.47
2023-10-29T16:41:42.096Z,96785.50
2023-10-29T16:43:51.197Z,96783.31
2023-10-29T16:45:56.003Z,96774.59
2023-10-29T16:48:00.771Z,96792.25
2023-10-29T16:50:09.521Z,96784.38
2023-10-29T16:52:15.786Z,96779.00
2023-10-29T16:54:20.798Z,96781.50
2023-10-29T16:56:25.610Z,96792.09
2023-10-29T16:58:27.836Z,96789.50
2023-10-29T17:00:32.683Z,96808.25
2023-10-29T17:02:37.648Z,96811.00
2023-10-29T17:04:42.485Z,96812.06
2023-10-29T17:06:49.866Z,96817.47
2023-10-29T17:08:55.673Z,96822.81
2023-10-29T17:11:00.812Z,96821.16
2023-10-29T17:13:05.565Z,96828.22
2023-10-29T17:15:13.369Z,96837.72
2023-10-29T17:17:18.129Z,96836.75
2023-10-29T17:19:22.841Z,96834.28
2023-10-29T17:21:27.584Z,96848.38
2023-10-29T17:23:32.984Z,96843.22
2023-10-29T17:25:38.659Z,96848.47
2023-10-29T17:27:43.557Z,96847.19
2023-10-29T17:29:51.447Z,96846.25
2023-10-29T17:31:53.618Z,96850.06
2023-10-29T17:33:58.399Z,96852.44
2023-10-29T17:36:03.237Z,96864.59
2023-10-29T17:38:08.087Z,96874.69
2023-10-29T17:40:16.419Z,96883.28
2023-10-29T17:42:24.209Z,96887.44
2023-10-29T17:44:30.499Z,96897.53
2023-10-29T17:46:35.324Z,96897.16
2023-10-29T17:48:40.471Z,96899.63
2023-10-29T17:50:45.188Z,96903.09
2023-10-29T17:52:49.969Z,96912.75
2023-10-29T17:54:54.614Z,96909.84
2023-10-29T17:57:02.042Z,96915.00
2023-10-29T17:59:07.824Z,96917.47
2023-10-29T18:01:12.522Z,96937.88
2023-10-29T18:03:17.478Z,96954.88
2023-10-29T18:05:22.703Z,96966.28
2023-10-29T18:07:27.381Z,96967.59
2023-10-29T18:09:32.716Z,96971.91
2023-10-29T18:11:37.428Z,96960.34
2023-10-29T18:13:45.103Z,96977.22
2023-10-29T18:15:49.750Z,96993.28
2023-10-29T18:17:54.647Z,97017.53
2023-10-29T18:19:59.749Z,97036.22
2023-10-29T18:22:06.841Z,97044.22
2023-10-29T18:24:12.980Z,97042.91
2023-10-29T18:26:15.550Z,97042.69
2023-10-29T18:28:20.643Z,97040.41
2023-10-29T18:30:28.499Z,97040.16
2023-10-29T18:32:33.719Z,97045.88
2023-10-29T18:34:35.874Z,97055.28
2023-10-29T18:36:41.083Z,97046.22
2023-10-29T18:38:45.760Z,97060.03
2023-10-29T18:40:50.624Z,97066.00
2023-10-29T18:42:52.702Z,97073.88
2023-10-29T18:44:57.609Z,97077.81
2023-10-29T18:47:05.249Z,97087.59
2023-10-29T18:49:10.185Z,97091.66
2023-10-29T18:51:16.493Z,97095.34
2023-10-29T18:53:21.135Z,97090.56
2023-10-29T18:55:26.004Z,97103.19
2023-10-29T18:57:31.915Z,97100.69
2023-10-29T18:59:36.746Z,97102.59
2023-10-29T19:01:41.799Z,97109.63
2023-10-29T19:03:49.159Z,97114.31
2023-10-29T19:05:54.423Z,97127.78
2023-10-29T19:07:59.260Z,97133.47
2023-10-29T19:10:04.633Z,97138.34
2023-10-29T19:12:09.894Z,97142.63
2023-10-29T19:14:14.663Z,97136.31
2023-10-29T19:16:19.636Z,97149.56
2023-10-29T19:18:24.469Z,97182.03
2023-10-29T19:20:32.192Z,97177.88
2023-10-29T19:22:36.857Z,97192.16
2023-10-29T19:24:42.044Z,97188.28
2023-10-29T19:26:46.914Z,97208.63
2023-10-29T19:28:51.662Z,97210.03
2023-10-29T19:31:16.858Z,97214.78
2023-10-29T19:33:21.404Z,97208.59
2023-10-29T19:35:26.083Z,97216.94
2023-10-29T19:37:33.750Z,97211.25
2023-10-29T19:39:38.510Z,97204.38
2023-10-29T19:41:43.512Z,97197.56
2023-10-29T19:43:48.338Z,97226.34
2023-10-29T19:45:53.939Z,97214.09
2023-10-29T19:47:58.833Z,97219.34
2023-10-29T19:50:03.907Z,97208.63
2023-10-29T19:52:10.013Z,97232.06
2023-10-29T19:54:14.743Z,97230.19
2023-10-29T19:56:19.502Z,97229.44
2023-10-29T19:58:24.374Z,97204.97
2023-10-29T20:00:31.709Z,97192.81
2023-10-29T20:02:36.901Z,97196.28
2023-10-29T20:04:41.974Z,97199.44
2023-10-29T20:06:46.704Z,97200.19
2023-10-29T20:08:51.524Z,97199.31
2023-10-29T20:10:56.256Z,97209.59
2023-10-29T20:13:01.095Z,97207.81
2023-10-29T20:15:09.532Z,97218.06
2023-10-29T20:17:14.756Z,97229.22
2023-10-29T20:19:20.343Z,97239.81
2023-10-29T20:21:22.506Z,97259.53
2023-10-29T20:23:28.447Z,97267.00
2023-10-29T20:25:33.135Z,97269.31
2023-10-29T20:27:44.194Z,97267.97
2023-10-29T20:29:50.307Z,97281.47
2023-10-29T20:31:55.281Z,97292.66
2023-10-29T20:34:00.116Z,97283.88
2023-10-29T20:36:05.379Z,97280.31
2023-10-29T20:38:10.324Z,97294.84
2023-10-29T20:40:15.954Z,97288.06
2023-10-29T20:42:20.709Z,97301.63
2023-10-29T20:44:28.013Z,97292.63
2023-10-29T20:46:33.946Z,97293.97
2023-10-29T20:48:38.961Z,97285.06
2023-10-29T20:50:44.077Z,97275.41
2023-10-29T20:52:50.040Z,97279.69
2023-10-29T20:54:52.127Z,97279.59
2023-10-29T20:56:56.952Z,97275.28
2023-10-29T20:58:59.001Z,97281.25
2023-10-29T21:01:08.945Z,97285.16
2023-10-29T21:03:13.900Z,97285.38
2023-10-29T21:05:18.713Z,97287.25
2023-10-29T21:07:23.685Z,97283.72
2023-10-29T21:09:28.527Z,97295.84
2023-10-29T21:11:33.223Z,97290.53
2023-10-29T21:13:38.319Z,97295.53
2023-10-29T21:15:44.963Z,97282.22
2023-10-29T21:17:52.583Z,97271.53
2023-10-29T21:19:57.442Z,97264.38
2023-10-29T21:22:02.180Z,97274.84
2023-10-29T21:24:07.363Z,97280.06
2023-10-29T21:26:12.121Z,97283.56
2023-10-29T21:28:17.235Z,97290.56
2023-10-29T21:30:22.040Z,97288.16
2023-10-29T21:32:26.859Z,97287.44
2023-10-29T21:34:34.777Z,97285.16
2023-10-29T21:36:40.104Z,97283.50
2023-10-29T21:38:44.871Z,97291.44
2023-10-29T21:40:49.724Z,97296.81
2023-10-29T21:42:54.638Z,97290.22
2023-10-29T21:44:59.343Z,97296.84
2023-10-29T21:47:04.012Z,97284.72
2023-10-29T21:49:09.204Z,97279.69
2023-10-29T21:51:17.045Z,97263.88
2023-10-29T21:53:19.202Z,97267.22
2023-10-29T21:55:23.953Z,97269.09
2023-10-29T21:57:28.780Z,97288.38
2023-10-29T21:59:33.454Z,97272.56
2023-10-29T22:01:38.159Z,97290.78
2023-10-29T22:03:43.988Z,97286.28
2023-10-29T22:05:58.520Z,97290.91
2023-10-29T22:08:06.149Z,97287.19
2023-10-29T22:10:11.287Z,97288.75
2023-10-29T22:12:16.091Z,97290.31
2023-10-29T22:14:18.225Z,97282.38
2023-10-29T22:16:26.357Z,97277.25
2023-10-29T22:18:28.585Z,97270.56
2023-10-29T22:20:33.658Z,97276.13
2023-10-29T22:22:38.506Z,97280.84
2023-10-29T22:24:43.156Z,97282.75
2023-10-29T22:26:47.961Z,97281.41
2023-10-29T22:28:53.133Z,97271.78
2023-10-29T22:31:00.514Z,97263.94
2023-10-29T22:33:05.189Z,97278.44
2023-10-29T22:35:10.338Z,97276.69
2023-10-29T22:37:15.163Z,97280.00
2023-10-29T22:39:20.222Z,97280.13
2023-10-29T22:41:27.827Z,97288.91
2023-10-29T22:43:32.987Z,97301.91
2023-10-29T22:45:39.431Z,97294.78
2023-10-29T22:47:44.904Z,97292.78
2023-10-29T22:49:47.632Z,97280.44
2023-10-29T22:51:52.568Z,97283.03
2023-10-29T22:53:57.255Z,97278.13
2023-10-29T22:56:03.235Z,97283.47
2023-10-29T22:58:10.674Z,97281.69
2023-10-29T23:00:16.742Z,97277.16
2023-10-29T23:02:21.565Z,97289.22
2023-10-29T23:04:26.362Z,97290.78
2023-10-29T23:06:31.122Z,97292.34
2023-10-29T23:08:35.970Z,97285.22
2023-10-29T23:10:39.488Z,97286.78
2023-10-29T23:12:44.275Z,97297.97
2023-10-29T23:14:51.883Z,97297.88
2023-10-29T23:16:56.760Z,97295.34
2023-10-29T23:19:01.431Z,97291.88
2023-10-29T23:21:06.711Z,97296.38
2023-10-29T23:23:17.106Z,97287.09
2023-10-29T23:25:21.825Z,97291.50
2023-10-29T23:27:26.580Z,97282.91
2023-10-29T23:29:31.710Z,97269.97
2023-10-29T23:31:39.108Z,97278.75
2023-10-29T23:33:43.849Z,97278.97
2023-10-29T23:35:46.483Z,97268.63
2023-10-29T23:37:51.258Z,97262.53
2023-10-29T23:39:55.919Z,97262.53
2023-10-29T23:42:00.581Z,97265.03
2023-10-29T23:44:05.884Z,97263.25
2023-10-29T23:46:10.611Z,97272.69
2023-10-29T23:48:17.960Z,97272.69
2023-10-29T23:50:22.762Z,97265.78
2023-10-29T23:52:24.862Z,97271.00
2023-10-29T23:54:30.048Z,97272.56
2023-10-29T23:56:34.787Z,97276.84
2023-10-29T23:58:39.532Z,97280.31
